Time;durP1;ratioP1;P1;durP2;ratioP2;P2;SDS_P1;SDS_P2;PMS_P1;PMS_P2;Temp;Humidity;BMP_temperature;BMP_pressure;BME280_temperature;BME280_humidity;BME280_pressure;Samples;Min_cycle;Max_cycle;Signal;HPM_P1;HPM_P2
2021/03/08 00:00:52;;;;;;;34.10;18.00;;;;;;;;;;5093698;28;20173;-76
2021/03/08 00:03:18;;;;;;;34.07;18.50;;;;;;;;;;5093710;28;20175;-76
2021/03/08 00:05:44;;;;;;;31.43;18.67;;;;;;;;;;5093097;28;20225;-76
2021/03/08 00:08:12;;;;;;;35.37;17.40;;;;;;;;;;5093526;28;20187;-75
2021/03/08 00:10:38;;;;;;;32.67;17.47;;;;;;;;;;5093414;28;20527;-76
2021/03/08 00:13:04;;;;;;;33.43;18.33;;;;;;;;;;5076683;28;20184;-75
2021/03/08 00:15:30;;;;;;;30.30;17.83;;;;;;;;;;5094571;28;20182;-75
2021/03/08 00:17:56;;;;;;;31.27;17.77;;;;;;;;;;5076814;28;20279;-76
2021/03/08 00:20:23;;;;;;;32.03;17.47;;;;;;;;;;5094562;28;20179;-76
2021/03/08 00:22:49;;;;;;;29.87;17.87;;;;;;;;;;5093377;28;20188;-76
2021/03/08 00:25:19;;;;;;;32.27;18.53;;;;;;;;;;5094795;28;20183;-75
2021/03/08 00:27:45;;;;;;;32.57;17.87;;;;;;;;;;5094246;28;20233;-76
2021/03/08 00:30:11;;;;;;;31.40;17.93;;;;;;;;;;5092898;28;20288;-76
2021/03/08 00:32:37;;;;;;;31.73;17.50;;;;;;;;;;5076274;28;20641;-76
2021/03/08 00:35:03;;;;;;;34.83;17.83;;;;;;;;;;5076294;28;20210;-76
2021/03/08 00:37:32;;;;;;;35.60;17.87;;;;;;;;;;5076144;28;20199;-76
2021/03/08 00:39:58;;;;;;;32.43;17.57;;;;;;;;;;5094621;28;20176;-74
2021/03/08 00:42:24;;;;;;;34.50;18.43;;;;;;;;;;5076530;28;20184;-73
2021/03/08 00:44:51;;;;;;;34.33;17.70;;;;;;;;;;5076316;28;20188;-74
2021/03/08 00:47:16;;;;;;;33.07;17.43;;;;;;;;;;5094272;28;20205;-74
2021/03/08 00:49:42;;;;;;;34.33;18.10;;;;;;;;;;5092734;28;20207;-77
2021/03/08 00:52:08;;;;;;;32.70;17.70;;;;;;;;;;5093738;28;20187;-74
2021/03/08 00:54:34;;;;;;;34.37;17.37;;;;;;;;;;5092772;28;20175;-76
2021/03/08 00:57:00;;;;;;;32.87;17.23;;;;;;;;;;5093782;28;20680;-76
2021/03/08 00:59:26;;;;;;;33.10;17.23;;;;;;;;;;5092801;28;20182;-76
2021/03/08 01:01:52;;;;;;;31.23;18.33;;;;;;;;;;5092095;28;20179;-75
2021/03/08 01:04:18;;;;;;;35.27;18.13;;;;;;;;;;5093901;28;20271;-76
2021/03/08 01:06:44;;;;;;;30.77;17.07;;;;;;;;;;5093546;28;20200;-75
2021/03/08 01:09:10;;;;;;;30.37;17.47;;;;;;;;;;5094004;28;20213;-75
2021/03/08 01:11:36;;;;;;;32.57;18.17;;;;;;;;;;5092991;28;20181;-76
2021/03/08 01:14:02;;;;;;;31.80;17.67;;;;;;;;;;5093424;28;20427;-76
2021/03/08 01:16:28;;;;;;;32.23;17.43;;;;;;;;;;5075258;28;20583;-76
2021/03/08 01:18:54;;;;;;;33.23;17.37;;;;;;;;;;5093302;28;20186;-76
2021/03/08 01:21:20;;;;;;;34.27;17.77;;;;;;;;;;5092136;28;20182;-76
2021/03/08 01:23:46;;;;;;;35.07;17.57;;;;;;;;;;5091886;28;20188;-76
2021/03/08 01:26:12;;;;;;;30.37;17.13;;;;;;;;;;5092136;28;20198;-76
2021/03/08 01:28:38;;;;;;;31.97;17.70;;;;;;;;;;5093217;28;20200;-75
2021/03/08 01:31:04;;;;;;;32.70;18.40;;;;;;;;;;5092978;28;20213;-76
2021/03/08 01:33:30;;;;;;;32.63;17.83;;;;;;;;;;5074593;28;20177;-76
2021/03/08 01:35:56;;;;;;;31.43;17.97;;;;;;;;;;5093032;28;20192;-76
2021/03/08 01:38:22;;;;;;;29.40;17.37;;;;;;;;;;5091792;28;20246;-76
2021/03/08 01:40:48;;;;;;;30.97;18.40;;;;;;;;;;5093053;28;20634;-76
2021/03/08 01:43:14;;;;;;;33.77;18.10;;;;;;;;;;5091662;28;20176;-76
2021/03/08 01:45:40;;;;;;;34.00;18.20;;;;;;;;;;5091791;28;20717;-76
2021/03/08 01:48:06;;;;;;;34.13;19.13;;;;;;;;;;5074666;28;20246;-74
2021/03/08 01:50:36;;;;;;;32.23;18.10;;;;;;;;;;5091431;28;20259;-76
2021/03/08 01:53:03;;;;;;;35.07;18.50;;;;;;;;;;5091235;28;20664;-76
2021/03/08 01:55:29;;;;;;;31.37;18.10;;;;;;;;;;5074701;28;20179;-76
2021/03/08 01:57:55;;;;;;;32.87;18.23;;;;;;;;;;5091121;28;20202;-75
2021/03/08 02:00:24;;;;;;;35.20;19.00;;;;;;;;;;5093422;28;20233;-74
2021/03/08 02:02:50;;;;;;;35.87;19.23;;;;;;;;;;5092142;28;20178;-75
2021/03/08 02:05:17;;;;;;;37.87;19.10;;;;;;;;;;5091540;28;20177;-74
2021/03/08 02:07:43;;;;;;;32.43;18.47;;;;;;;;;;5091481;28;20207;-75
2021/03/08 02:10:10;;;;;;;35.07;20.20;;;;;;;;;;5091107;28;20214;-75
2021/03/08 02:12:48;;;;;;;34.00;18.63;;;;;;;;;;5092406;28;20261;-75
2021/03/08 02:15:33;;;;;;;31.23;18.73;;;;;;;;;;5092133;28;20203;-75
2021/03/08 02:18:02;;;;;;;35.57;18.60;;;;;;;;;;5092490;28;20552;-75
2021/03/08 02:20:41;;;;;;;34.80;18.40;;;;;;;;;;5090980;28;20188;-75
2021/03/08 02:23:33;;;;;;;29.80;17.50;;;;;;;;;;5092154;28;20174;-75
2021/03/08 02:26:02;;;;;;;34.63;18.47;;;;;;;;;;5060742;28;20594;-76
2021/03/08 02:28:51;;;;;;;35.37;19.43;;;;;;;;;;5090950;28;20183;-75
2021/03/08 02:31:19;;;;;;;38.40;19.20;;;;;;;;;;5063095;28;20188;-76
2021/03/08 02:33:47;;;;;;;35.43;19.50;;;;;;;;;;5091284;28;20262;-75
2021/03/08 02:36:12;;;;;;;33.57;18.60;;;;;;;;;;5074069;28;20207;-76
2021/03/08 02:38:39;;;;;;;36.27;19.30;;;;;;;;;;5090941;28;20180;-75
2021/03/08 02:41:06;;;;;;;34.80;18.63;;;;;;;;;;5090792;28;20649;-76
2021/03/08 02:43:35;;;;;;;34.90;18.90;;;;;;;;;;5090697;28;20268;-74
2021/03/08 02:46:02;;;;;;;34.00;19.00;;;;;;;;;;5091869;28;20217;-76
2021/03/08 02:48:28;;;;;;;34.57;19.83;;;;;;;;;;5091081;28;20212;-76
2021/03/08 02:50:54;;;;;;;34.30;18.50;;;;;;;;;;5090387;28;20176;-75
2021/03/08 02:53:20;;;;;;;32.10;18.33;;;;;;;;;;5090706;28;20185;-75
2021/03/08 02:55:53;;;;;;;35.77;18.60;;;;;;;;;;5090834;28;20171;-76
2021/03/08 02:58:19;;;;;;;35.93;18.90;;;;;;;;;;5090963;28;20254;-76
2021/03/08 03:00:47;;;;;;;31.27;18.53;;;;;;;;;;5073633;28;20270;-76
2021/03/08 03:03:13;;;;;;;40.17;20.30;;;;;;;;;;5090439;28;20551;-75
2021/03/08 03:05:40;;;;;;;33.80;19.27;;;;;;;;;;5091053;28;20180;-76
2021/03/08 03:08:06;;;;;;;36.77;19.33;;;;;;;;;;5092245;28;20168;-76
2021/03/08 03:10:32;;;;;;;31.37;18.13;;;;;;;;;;5094564;28;20294;-75
2021/03/08 03:12:59;;;;;;;34.33;18.77;;;;;;;;;;5094483;28;20305;-75
2021/03/08 03:15:24;;;;;;;36.83;18.60;;;;;;;;;;5077900;28;20539;-76
2021/03/08 03:17:50;;;;;;;34.53;19.27;;;;;;;;;;5094354;28;20219;-75
2021/03/08 03:20:16;;;;;;;34.80;19.90;;;;;;;;;;5094269;28;20270;-75
2021/03/08 03:22:44;;;;;;;38.93;19.60;;;;;;;;;;5094255;28;20178;-76
2021/03/08 03:25:11;;;;;;;37.37;19.67;;;;;;;;;;5095883;28;20211;-76
2021/03/08 03:27:37;;;;;;;36.13;19.70;;;;;;;;;;5078578;28;20212;-76
2021/03/08 03:30:04;;;;;;;36.93;19.53;;;;;;;;;;5075183;28;20233;-75
2021/03/08 03:32:29;;;;;;;38.87;20.77;;;;;;;;;;5073770;28;20216;-77
2021/03/08 03:34:55;;;;;;;39.90;20.73;;;;;;;;;;5073953;28;20201;-75
2021/03/08 03:37:22;;;;;;;40.53;20.20;;;;;;;;;;5057350;28;20312;-75
2021/03/08 03:39:48;;;;;;;40.10;21.30;;;;;;;;;;5073890;28;20177;-75
2021/03/08 03:42:17;;;;;;;41.43;21.93;;;;;;;;;;5056865;28;20178;-76
2021/03/08 03:44:43;;;;;;;47.27;22.90;;;;;;;;;;5073442;28;20210;-76
2021/03/08 03:47:09;;;;;;;43.97;21.90;;;;;;;;;;5074722;28;20239;-76
2021/03/08 03:49:35;;;;;;;41.90;22.30;;;;;;;;;;5073436;28;20205;-75
2021/03/08 03:52:01;;;;;;;45.93;22.47;;;;;;;;;;5073120;28;20679;-76
2021/03/08 03:54:27;;;;;;;44.80;23.47;;;;;;;;;;5074848;28;20175;-75
2021/03/08 03:56:54;;;;;;;46.37;23.00;;;;;;;;;;5073318;28;20200;-75
2021/03/08 03:59:23;;;;;;;44.47;23.27;;;;;;;;;;5073250;28;20188;-74
2021/03/08 04:02:02;;;;;;;47.47;22.20;;;;;;;;;;5056407;28;20217;-74
2021/03/08 04:04:29;;;;;;;41.10;22.20;;;;;;;;;;5073106;28;20452;-76
2021/03/08 04:06:55;;;;;;;44.50;22.23;;;;;;;;;;5074215;28;20192;-75
2021/03/08 04:09:22;;;;;;;43.87;21.80;;;;;;;;;;5073173;28;20223;-75
2021/03/08 04:11:48;;;;;;;40.13;21.97;;;;;;;;;;5072864;28;20173;-75
2021/03/08 04:14:17;;;;;;;40.43;21.93;;;;;;;;;;5056339;28;20185;-74
2021/03/08 04:16:44;;;;;;;37.60;20.60;;;;;;;;;;5099143;23;20347;-78
2021/03/08 04:19:10;;;;;;;39.53;22.43;;;;;;;;;;5046372;28;20211;-78
2021/03/08 04:21:38;;;;;;;44.57;22.23;;;;;;;;;;5054412;28;20188;-76
2021/03/08 04:24:04;;;;;;;43.33;22.43;;;;;;;;;;5055298;28;20206;-78
2021/03/08 04:26:30;;;;;;;41.93;21.70;;;;;;;;;;5047350;28;20225;-76
2021/03/08 04:28:56;;;;;;;44.60;22.17;;;;;;;;;;5016536;28;20252;-76
2021/03/08 04:31:22;;;;;;;43.33;21.70;;;;;;;;;;5032452;28;20182;-76
2021/03/08 04:33:48;;;;;;;42.70;22.50;;;;;;;;;;5016208;28;20668;-77
2021/03/08 04:36:14;;;;;;;44.17;22.87;;;;;;;;;;5017157;28;20209;-77
2021/03/08 04:38:41;;;;;;;42.57;21.97;;;;;;;;;;5017897;28;20749;-77
2021/03/08 04:41:07;;;;;;;40.97;22.50;;;;;;;;;;5017663;28;20190;-76
2021/03/08 04:43:33;;;;;;;48.10;22.77;;;;;;;;;;5033838;28;20674;-76
2021/03/08 04:45:59;;;;;;;50.30;23.87;;;;;;;;;;5032425;28;20587;-76
2021/03/08 04:48:26;;;;;;;41.23;22.87;;;;;;;;;;5016347;28;20192;-77
2021/03/08 04:50:52;;;;;;;46.97;21.73;;;;;;;;;;5016032;28;20434;-76
2021/03/08 04:53:17;;;;;;;46.83;23.70;;;;;;;;;;5016164;28;20182;-76
2021/03/08 04:55:44;;;;;;;48.50;22.40;;;;;;;;;;5015761;28;20185;-76
2021/03/08 04:58:10;;;;;;;45.93;23.53;;;;;;;;;;5016299;28;20243;-77
2021/03/08 05:00:37;;;;;;;45.57;22.37;;;;;;;;;;5032391;28;20182;-76
2021/03/08 05:03:04;;;;;;;47.20;23.13;;;;;;;;;;5015740;28;20244;-76
2021/03/08 05:05:30;;;;;;;44.07;22.27;;;;;;;;;;5032429;28;20182;-76
2021/03/08 05:08:00;;;;;;;48.10;23.13;;;;;;;;;;5015422;28;20304;-77
2021/03/08 05:10:27;;;;;;;44.90;22.77;;;;;;;;;;5015631;28;20214;-77
2021/03/08 05:12:53;;;;;;;47.57;23.37;;;;;;;;;;5015897;28;20189;-76
2021/03/08 05:15:19;;;;;;;49.40;23.73;;;;;;;;;;5015766;28;20682;-77
2021/03/08 05:17:45;;;;;;;42.00;23.03;;;;;;;;;;5015594;28;20207;-76
2021/03/08 05:20:13;;;;;;;44.97;21.60;;;;;;;;;;5032387;28;20338;-77
2021/03/08 05:22:40;;;;;;;39.33;21.10;;;;;;;;;;5015229;28;20273;-77
2021/03/08 05:25:06;;;;;;;45.13;22.63;;;;;;;;;;5015929;28;20670;-77
2021/03/08 05:27:32;;;;;;;43.23;22.27;;;;;;;;;;5015543;28;20210;-76
2021/03/08 05:29:59;;;;;;;46.63;22.17;;;;;;;;;;5031933;28;20229;-77
2021/03/08 05:32:26;;;;;;;44.60;22.93;;;;;;;;;;5031805;28;20204;-77
2021/03/08 05:34:52;;;;;;;43.97;23.03;;;;;;;;;;5015301;28;20306;-77
2021/03/08 05:37:18;;;;;;;48.30;22.83;;;;;;;;;;5031485;28;20237;-77
2021/03/08 05:39:44;;;;;;;46.37;22.83;;;;;;;;;;5031705;28;20634;-76
2021/03/08 05:42:10;;;;;;;51.33;24.30;;;;;;;;;;5015320;28;20216;-77
2021/03/08 05:44:37;;;;;;;49.03;22.97;;;;;;;;;;5032541;28;20178;-77
2021/03/08 05:47:03;;;;;;;47.87;24.23;;;;;;;;;;5031175;28;20213;-76
2021/03/08 05:49:36;;;;;;;46.40;23.73;;;;;;;;;;5032778;28;20205;-76
2021/03/08 05:52:02;;;;;;;44.77;22.37;;;;;;;;;;5029836;28;20190;-77
2021/03/08 05:54:47;;;;;;;46.53;23.47;;;;;;;;;;5027114;28;20253;-76
2021/03/08 05:57:22;;;;;;;48.37;23.43;;;;;;;;;;5029148;28;20750;-76
2021/03/08 06:00:07;;;;;;;46.70;22.60;;;;;;;;;;5030590;28;20261;-77
2021/03/08 06:02:36;;;;;;;53.67;23.43;;;;;;;;;;5048299;28;20723;-76
2021/03/08 06:05:21;;;;;;;54.37;24.33;;;;;;;;;;5030435;28;20669;-76
2021/03/08 06:07:59;;;;;;;48.57;24.33;;;;;;;;;;5011759;28;20207;-77
2021/03/08 06:10:25;;;;;;;49.00;24.97;;;;;;;;;;5012610;28;20201;-76
2021/03/08 06:12:55;;;;;;;52.43;24.40;;;;;;;;;;5012078;28;20182;-76
2021/03/08 06:15:21;;;;;;;57.97;25.93;;;;;;;;;;4995459;28;20186;-76
2021/03/08 06:17:49;;;;;;;55.67;25.47;;;;;;;;;;5013722;28;20211;-76
2021/03/08 06:20:15;;;;;;;56.80;26.33;;;;;;;;;;4997149;28;20624;-76
2021/03/08 06:22:41;;;;;;;55.67;25.20;;;;;;;;;;5002664;28;20223;-76
2021/03/08 06:25:07;;;;;;;57.17;26.33;;;;;;;;;;5024083;28;20201;-76
2021/03/08 06:27:33;;;;;;;59.67;26.57;;;;;;;;;;5031404;28;20217;-77
2021/03/08 06:29:59;;;;;;;65.73;27.03;;;;;;;;;;5030984;28;20208;-77
2021/03/08 06:32:25;;;;;;;58.80;27.20;;;;;;;;;;5030458;28;20226;-77
2021/03/08 06:34:51;;;;;;;63.43;27.60;;;;;;;;;;5014463;28;20181;-76
2021/03/08 06:37:17;;;;;;;61.53;27.40;;;;;;;;;;5021680;28;20361;-76
2021/03/08 06:39:44;;;;;;;61.97;29.27;;;;;;;;;;5003496;28;20187;-78
2021/03/08 06:42:10;;;;;;;62.70;28.20;;;;;;;;;;5030083;28;20176;-76
2021/03/08 06:44:37;;;;;;;66.70;29.27;;;;;;;;;;5031905;28;20181;-77
2021/03/08 06:47:04;;;;;;;64.03;29.43;;;;;;;;;;5040743;28;20689;-76
2021/03/08 06:49:30;;;;;;;59.93;29.57;;;;;;;;;;5018401;28;20698;-76
2021/03/08 06:52:07;;;;;;;65.50;29.93;;;;;;;;;;5031503;28;20220;-76
2021/03/08 06:54:34;;;;;;;61.47;28.87;;;;;;;;;;5033463;28;20183;-75
2021/03/08 06:57:00;;;;;;;63.73;29.17;;;;;;;;;;5016505;28;20202;-75
2021/03/08 06:59:25;;;;;;;68.60;29.87;;;;;;;;;;5014221;28;20210;-76
2021/03/08 07:01:52;;;;;;;65.30;30.03;;;;;;;;;;5029740;28;20807;-75
2021/03/08 07:04:24;;;;;;;69.47;29.07;;;;;;;;;;5022130;28;20234;-76
2021/03/08 07:07:05;;;;;;;70.00;29.30;;;;;;;;;;5020041;28;20699;-76
2021/03/08 07:09:32;;;;;;;75.57;30.17;;;;;;;;;;5018522;28;20737;-77
2021/03/08 07:12:08;;;;;;;67.07;29.80;;;;;;;;;;5029316;28;20701;-76
2021/03/08 07:14:34;;;;;;;66.87;30.47;;;;;;;;;;5030429;28;20192;-76
2021/03/08 07:17:00;;;;;;;70.33;28.87;;;;;;;;;;5029944;28;20218;-75
2021/03/08 07:19:27;;;;;;;68.93;30.13;;;;;;;;;;5030205;28;20234;-76
2021/03/08 07:21:54;;;;;;;67.00;30.67;;;;;;;;;;5013543;28;20189;-77
2021/03/08 07:24:20;;;;;;;71.70;30.57;;;;;;;;;;5029293;28;20276;-77
2021/03/08 07:26:56;;;;;;;73.33;29.77;;;;;;;;;;5013782;28;20244;-76
2021/03/08 07:29:25;;;;;;;73.40;29.63;;;;;;;;;;5027394;28;20202;-75
2021/03/08 07:31:51;;;;;;;55.70;27.47;;;;;;;;;;5028981;28;20708;-74
2021/03/08 07:34:17;;;;;;;61.17;26.00;;;;;;;;;;5030160;28;20554;-74
2021/03/08 07:36:44;;;;;;;61.77;27.70;;;;;;;;;;5010498;28;20240;-74
2021/03/08 07:39:10;;;;;;;59.70;27.37;;;;;;;;;;5012384;28;20181;-74
2021/03/08 07:41:36;;;;;;;62.37;27.60;;;;;;;;;;5031046;28;20827;-74
2021/03/08 07:44:06;;;;;;;57.70;27.07;;;;;;;;;;5029642;28;20347;-74
2021/03/08 07:46:36;;;;;;;56.93;27.50;;;;;;;;;;5013531;28;20205;-74
2021/03/08 07:49:06;;;;;;;59.13;25.97;;;;;;;;;;5013262;28;20679;-74
2021/03/08 07:51:32;;;;;;;60.50;26.97;;;;;;;;;;5029934;28;20262;-74
2021/03/08 07:54:09;;;;;;;56.03;25.90;;;;;;;;;;5029941;28;20183;-74
2021/03/08 07:56:35;;;;;;;54.67;25.17;;;;;;;;;;5033547;28;20187;-74
2021/03/08 07:59:02;;;;;;;53.43;25.70;;;;;;;;;;5033263;28;20268;-74
2021/03/08 08:01:30;;;;;;;56.97;26.27;;;;;;;;;;5032924;28;20196;-74
2021/03/08 08:03:55;;;;;;;56.83;24.87;;;3.80;99.90;;;;;;5016943;28;20181;-74
2021/03/08 08:06:22;;;;;;;51.30;23.80;;;3.70;99.90;;;;;;5016551;28;20262;-74
2021/03/08 08:08:51;;;;;;;52.00;22.97;;;3.80;99.90;;;;;;5016916;28;20188;-75
2021/03/08 08:11:18;;;;;;;51.77;23.80;;;3.70;99.90;;;;;;5033301;28;20221;-75
2021/03/08 08:13:53;;;;;;;45.67;22.67;;;3.70;99.90;;;;;;5009729;28;20220;-73
2021/03/08 08:16:25;;;;;;;49.63;22.63;;;4.00;99.90;;;;;;5032153;28;20281;-74
2021/03/08 08:18:53;;;;;;;47.33;21.47;;;4.20;99.90;;;;;;5000869;28;20178;-74
2021/03/08 08:21:19;;;;;;;45.60;22.13;;;4.20;99.90;;;;;;5016686;28;20180;-74
2021/03/08 08:23:46;;;;;;;49.53;21.33;;;4.00;99.90;;;;;;5016371;28;20544;-76
2021/03/08 08:26:14;;;;;;;46.27;20.33;;;4.10;99.90;;;;;;5014542;28;20233;-76
2021/03/08 08:28:41;;;;;;;47.97;20.60;;;;;;;;;;4995436;28;20182;-76
2021/03/08 08:31:08;;;;;;;41.77;18.50;;;;;;;;;;5016061;28;20180;-75
2021/03/08 08:33:34;;;;;;;40.37;17.87;;;3.70;99.90;;;;;;5016368;28;20250;-75
2021/03/08 08:36:10;;;;;;;42.87;18.20;;;;;;;;;;5000123;28;20604;-75
2021/03/08 08:38:37;;;;;;;40.53;17.50;;;;;;;;;;5032918;28;20518;-75
2021/03/08 08:41:22;;;;;;;40.30;17.20;;;;;;;;;;5015368;28;20190;-75
2021/03/08 08:44:09;;;;;;;40.63;16.03;;;3.90;99.90;;;;;;4996682;28;20261;-75
2021/03/08 08:46:40;;;;;;;40.20;16.07;;;3.90;99.90;;;;;;4995795;28;20212;-76
2021/03/08 08:49:13;;;;;;;38.77;16.67;;;;;;;;;;4980826;28;20238;-76
2021/03/08 08:51:53;;;;;;;37.67;16.57;;;3.10;99.90;;;;;;5012623;28;20210;-76
2021/03/08 08:54:31;;;;;;;40.17;18.53;;;;;;;;;;5022413;28;20667;-77
2021/03/08 08:57:08;;;;;;;39.77;17.73;;;;;;;;;;5031869;28;20253;-75
2021/03/08 08:59:37;;;;;;;41.57;17.10;;;;;;;;;;5041525;28;20210;-75
2021/03/08 09:04:48;;;;;;;34.67;16.23;;;;;;;;;;5038187;28;20245;-75
2021/03/08 09:07:22;;;;;;;34.43;16.43;;;;;;;;;;5015525;28;20210;-75
2021/03/08 09:09:49;;;;;;;36.60;15.93;;;;;;;;;;5032108;28;20638;-75
2021/03/08 09:12:31;;;;;;;35.23;16.43;;;;;;;;;;5031608;28;20185;-76
2021/03/08 09:15:01;;;;;;;30.30;14.57;;;;;;;;;;5032136;28;20653;-75
2021/03/08 09:17:34;;;;;;;34.70;15.17;;;;;;;;;;5033083;28;20274;-76
2021/03/08 09:20:00;;;;;;;32.77;15.83;;;;;;;;;;5015602;28;20184;-77
2021/03/08 09:22:29;;;;;;;33.50;17.80;;;;;;;;;;5033206;28;20554;-76
2021/03/08 09:24:58;;;;;;;29.67;14.83;;;;;;;;;;5032183;28;20252;-78
2021/03/08 09:27:27;;;;;;;35.63;15.80;;;;;;;;;;5033131;28;20570;-76
2021/03/08 09:29:55;;;;;;;31.77;15.00;;;;;;;;;;5007759;28;20290;-76
2021/03/08 09:32:21;;;;;;;34.93;14.63;;;;;;;;;;5025177;28;20182;-75
2021/03/08 09:34:46;;;;;;;24.10;13.63;;;;;;;;;;5031958;28;20193;-76
2021/03/08 09:37:12;;;;;;;26.37;14.03;;;;;;;;;;5014984;28;20253;-77
2021/03/08 09:39:51;;;;;;;27.80;14.03;;;;;;;;;;5031784;28;20186;-76
2021/03/08 09:42:17;;;;;;;24.73;12.63;;;;;;;;;;5036577;28;20187;-75
2021/03/08 09:44:44;;;;;;;26.27;13.33;;;;;;;;;;5031276;28;20180;-77
2021/03/08 09:47:10;;;;;;;27.10;13.43;;;;;;;;;;5031476;28;20215;-76
2021/03/08 09:49:49;;;;;;;34.23;15.67;;;;;;;;;;5031012;28;20210;-76
2021/03/08 09:52:30;;;;;;;34.60;15.40;;;;;;;;;;5032350;28;20177;-76
2021/03/08 09:54:56;;;;;;;37.30;14.70;;;;;;;;;;5015414;28;20185;-76
2021/03/08 09:57:35;;;;;;;33.67;15.13;;;;;;;;;;5031352;28;20206;-75
2021/03/08 10:00:01;;;;;;;29.03;13.23;;;;;;;;;;5032749;28;20182;-76
2021/03/08 10:02:27;;;;;;;33.57;14.43;;;;;;;;;;5032781;28;20642;-76
2021/03/08 10:04:54;;;;;;;28.80;13.40;;;;;;;;;;5031532;28;20192;-76
2021/03/08 10:07:20;;;;;;;33.37;13.67;;;;;;;;;;5031337;28;20204;-75
2021/03/08 10:09:46;;;;;;;31.97;14.83;;;;;;;;;;5031542;28;20206;-75
2021/03/08 10:12:12;;;;;;;36.27;14.10;;;;;;;;;;5014549;28;20598;-75
2021/03/08 10:14:38;;;;;;;32.30;13.83;;;;;;;;;;5014368;28;20182;-76
2021/03/08 10:17:11;;;;;;;27.23;13.57;;;;;;;;;;5029707;28;20218;-76
2021/03/08 10:19:38;;;;;;;34.07;14.63;;;;;;;;;;5031687;28;20243;-77
2021/03/08 10:22:06;;;;;;;29.57;14.37;;;;;;;;;;5031423;28;20194;-75
2021/03/08 10:24:35;;;;;;;25.63;13.43;;;;;;;;;;5033005;28;20575;-76
2021/03/08 10:27:01;;;;;;;25.60;12.13;;;;;;;;;;5018331;28;20205;-76
2021/03/08 10:29:27;;;;;;;30.47;13.30;;;;;;;;;;5018186;28;20206;-77
2021/03/08 10:31:53;;;;;;;21.87;11.00;;;;;;;;;;5029325;28;20214;-76
2021/03/08 10:34:19;;;;;;;19.23;10.80;;;;;;;;;;5042091;28;20208;-77
2021/03/08 10:36:45;;;;;;;21.07;11.20;;;;;;;;;;5042811;28;20733;-77
2021/03/08 10:39:12;;;;;;;24.47;11.37;;;;;;;;;;5029375;28;20225;-76
2021/03/08 10:41:38;;;;;;;20.43;11.10;;;;;;;;;;5025835;28;20325;-76
2021/03/08 10:44:04;;;;;;;23.63;11.43;;;;;;;;;;5030637;28;20185;-75
2021/03/08 10:46:34;;;;;;;18.77;10.80;;;;;;;;;;5014055;28;20202;-76
2021/03/08 10:49:01;;;;;;;24.07;11.53;;;;;;;;;;5014859;28;20531;-75
2021/03/08 10:51:28;;;;;;;21.83;10.80;;;;;;;;;;5022829;28;20246;-75
2021/03/08 10:53:54;;;;;;;15.70;8.87;;;;;;;;;;5023446;28;20175;-75
2021/03/08 10:56:20;;;;;;;19.03;9.33;;;;;;;;;;5014498;28;20208;-75
2021/03/08 10:58:46;;;;;;;22.60;10.77;;;;;;;;;;5030354;28;20193;-76
2021/03/08 11:01:12;;;;;;;24.17;10.73;;;;;;;;;;5037767;28;20181;-75
2021/03/08 11:03:42;;;;;;;19.27;10.10;;;;;;;;;;5013403;28;20182;-75
2021/03/08 11:06:08;;;;;;;18.03;9.27;;;;;;;;;;5013657;28;20210;-75
2021/03/08 11:08:37;;;;;;;18.90;9.43;;;;;;;;;;5013634;28;20678;-75
2021/03/08 11:11:13;;;;;;;20.63;10.07;;;;;;;;;;5030418;28;20690;-75
2021/03/08 11:13:39;;;;;;;19.23;9.23;;;;;;;;;;5030007;28;20177;-75
2021/03/08 11:16:06;;;;;;;17.73;9.07;;;;;;;;;;5029566;28;20196;-75
2021/03/08 11:18:32;;;;;;;18.33;9.07;;;;;;;;;;5013778;28;20183;-75
2021/03/08 11:21:09;;;;;;;17.40;8.27;;;;;;;;;;5023709;28;20639;-74
2021/03/08 11:23:35;;;;;;;15.30;8.63;;;;;;;;;;5041096;28;20197;-76
2021/03/08 11:26:09;;;;;;;20.27;8.70;;;;;;;;;;5030535;28;20588;-75
2021/03/08 11:28:39;;;;;;;14.97;8.07;;;;;;;;;;5025394;28;20254;-76
2021/03/08 11:31:05;;;;;;;14.27;8.17;;;;;;;;;;5027122;28;20209;-76
2021/03/08 11:33:37;;;;;;;13.83;8.53;;;;;;;;;;5044139;28;20185;-76
2021/03/08 11:36:03;;;;;;;15.63;7.70;;;;;;;;;;5042106;28;20198;-75
2021/03/08 11:38:30;;;;;;;13.40;8.10;;;;;;;;;;5040961;28;20201;-76
2021/03/08 11:40:57;;;;;;;12.97;7.70;;;;;;;;;;5022406;28;20229;-75
2021/03/08 11:43:23;;;;;;;18.80;7.57;;;;;;;;;;5021810;28;20188;-76
2021/03/08 11:45:49;;;;;;;14.53;7.90;;;;;;;;;;5042668;28;20182;-76
2021/03/08 11:48:15;;;;;;;13.93;7.93;;;;;;;;;;5030609;28;20201;-76
2021/03/08 11:50:41;;;;;;;19.17;8.07;;;;;;;;;;5022289;28;20215;-76
2021/03/08 11:53:07;;;;;;;16.33;7.53;;;;;;;;;;5018109;28;20665;-77
2021/03/08 11:55:33;;;;;;;12.80;6.43;;;;;;;;;;5034182;28;20185;-77
2021/03/08 11:57:59;;;;;;;16.30;7.27;;;;;;;;;;5033054;28;20206;-76
2021/03/08 12:00:25;;;;;;;14.10;7.00;;;;;;;;;;5016703;28;20191;-77
2021/03/08 12:02:51;;;;;;;14.13;6.20;;;;;;;;;;5033149;28;20189;-76
2021/03/08 12:05:17;;;;;;;11.50;6.37;;;;;;;;;;5033207;28;20217;-76
2021/03/08 12:07:43;;;;;;;15.43;6.07;;;;;;;;;;5032840;28;20238;-76
2021/03/08 12:10:10;;;;;;;13.43;6.27;;;;;;;;;;5034344;28;20203;-77
2021/03/08 12:12:36;;;;;;;14.20;6.27;;;;;;;;;;5032905;28;20182;-76
2021/03/08 12:15:05;;;;;;;14.50;6.77;;;;;;;;;;5033151;28;20272;-77
2021/03/08 12:17:31;;;;;;;15.37;6.90;;;;;;;;;;5016362;28;20222;-76
2021/03/08 12:19:57;;;;;;;12.23;6.43;;;;;;;;;;5016988;28;20186;-77
2021/03/08 12:22:23;;;;;;;12.63;6.90;;;;;;;;;;5032620;28;20657;-78
2021/03/08 12:24:49;;;;;;;10.67;6.00;;;;;;;;;;5016404;28;20268;-78
2021/03/08 12:27:15;;;;;;;12.27;6.73;;;;;;;;;;5032673;28;20202;-76
2021/03/08 12:29:41;;;;;;;13.47;6.93;;;;;;;;;;5016419;28;20201;-77
2021/03/08 12:32:08;;;;;;;11.30;6.53;;;;;;;;;;5032576;28;20628;-77
2021/03/08 12:34:34;;;;;;;13.43;6.60;;;;;;;;;;5032522;28;20185;-77
2021/03/08 12:37:00;;;;;;;12.87;6.63;;;;;;;;;;5033423;28;20225;-78
2021/03/08 12:39:26;;;;;;;14.67;7.90;;;;;;;;;;5033912;28;20211;-76
2021/03/08 12:41:51;;;;;;;15.10;7.50;;;;;;;;;;5031617;28;20231;-76
2021/03/08 12:44:17;;;;;;;11.93;6.43;;;;;;;;;;5032451;28;20178;-77
2021/03/08 12:46:43;;;;;;;11.20;6.63;;;;;;;;;;5012343;28;20241;-77
2021/03/08 12:49:10;;;;;;;12.93;7.27;;;;;;;;;;5020818;28;20186;-76
2021/03/08 12:51:36;;;;;;;12.50;6.27;;;;;;;;;;5032299;28;20191;-76
2021/03/08 12:54:02;;;;;;;12.90;6.73;;;;;;;;;;5032240;28;20177;-77
2021/03/08 12:56:28;;;;;;;10.50;6.47;;;;;;;;;;5032370;28;20256;-77
2021/03/08 12:58:54;;;;;;;11.83;6.83;;;;;;;;;;5032149;28;20210;-77
2021/03/08 13:01:20;;;;;;;12.33;7.23;;;;;;;;;;5032405;28;20190;-76
2021/03/08 13:03:46;;;;;;;12.13;6.97;;;;;;;;;;5032612;28;20187;-76
2021/03/08 13:06:13;;;;;;;9.73;6.10;;;;;;;;;;5033426;28;20259;-77
2021/03/08 13:08:39;;;;;;;15.80;7.03;;;;;;;;;;5032278;28;20269;-76
2021/03/08 13:11:05;;;;;;;12.30;6.70;;;;;;;;;;5031878;28;20199;-76
2021/03/08 13:13:31;;;;;;;13.23;6.43;;;;;;;;;;5032503;28;20190;-76
2021/03/08 13:15:57;;;;;;;12.90;6.60;;;;;;;;;;5032544;28;20213;-77
2021/03/08 13:18:23;;;;;;;14.00;7.27;;;;;;;;;;5019874;28;20324;-76
2021/03/08 13:20:49;;;;;;;11.63;6.47;;;;;;;;;;5046074;28;20332;-76
2021/03/08 13:23:15;;;;;;;12.80;7.00;;;;;;;;;;5031361;28;20190;-76
2021/03/08 13:25:42;;;;;;;14.17;7.20;;;;;;;;;;5032453;28;20270;-77
2021/03/08 13:28:08;;;;;;;15.13;7.37;;;;;;;;;;5019283;28;20249;-76
2021/03/08 13:30:34;;;;;;;12.33;6.60;;;;;;;;;;4995675;28;20203;-77
2021/03/08 13:33:00;;;;;;;14.53;7.30;;;;;;;;;;5016800;28;20175;-77
2021/03/08 13:35:26;;;;;;;14.20;8.20;;;;;;;;;;5033584;28;20175;-76
2021/03/08 13:37:52;;;;;;;14.67;7.00;;;;;;;;;;5015892;28;20214;-76
2021/03/08 13:40:18;;;;;;;14.07;7.90;;;;;;;;;;5000736;28;20538;-76
2021/03/08 13:42:44;;;;;;;16.47;8.07;;;;;;;;;;5014344;28;20183;-77
2021/03/08 13:45:10;;;;;;;12.17;7.50;;;;;;;;;;5015767;28;20189;-76
2021/03/08 13:47:37;;;;;;;15.40;7.60;;;;;;;;;;5016363;28;20201;-76
2021/03/08 13:50:03;;;;;;;14.07;8.70;;;;;;;;;;5031878;28;20275;-76
2021/03/08 13:52:29;;;;;;;19.23;10.33;;;;;;;;;;5030565;28;20193;-77
2021/03/08 13:54:55;;;;;;;18.20;10.20;;;;;;;;;;5006695;28;20186;-76
2021/03/08 13:57:21;;;;;;;18.20;10.23;;;;;;;;;;5041263;28;20197;-78
2021/03/08 13:59:47;;;;;;;22.73;10.53;;;;;;;;;;5025547;28;20187;-77
2021/03/08 14:02:13;;;;;;;21.53;9.47;;;;;;;;;;5004949;28;20278;-76
2021/03/08 14:04:39;;;;;;;18.40;10.30;;;;;;;;;;5019415;28;20715;-77
2021/03/08 14:07:05;;;;;;;17.60;9.57;;;;;;;;;;5011715;28;20264;-80
2021/03/08 14:09:31;;;;;;;20.00;9.10;;;;;;;;;;5015311;28;20745;-77
2021/03/08 14:11:57;;;;;;;14.23;9.10;;;;;;;;;;5022487;28;20179;-77
2021/03/08 14:14:23;;;;;;;19.27;8.23;;;;;;;;;;4996539;28;20183;-77
2021/03/08 14:16:49;;;;;;;15.23;8.57;;;;;;;;;;5027254;28;20749;-76
2021/03/08 14:19:15;;;;;;;17.50;8.73;;;;;;;;;;4997320;28;20175;-77
2021/03/08 14:21:41;;;;;;;15.53;8.80;;;;;;;;;;5022135;28;20205;-78